sensor_id;sensor_type;location;lat;lon;timestamp;P1;durP1;ratioP1;P2;durP2;ratioP2
13061;SDS011;6597;52.218;9.882;2023-07-31T00:02:12;7.67;;;1.80;;
13061;SDS011;6597;52.218;9.882;2023-07-31T00:04:38;11.93;;;2.50;;
13061;SDS011;6597;52.218;9.882;2023-07-31T00:07:05;4.90;;;1.60;;
13061;SDS011;6597;52.218;9.882;2023-07-31T00:09:31;16.50;;;2.87;;
13061;SDS011;6597;52.218;9.882;2023-07-31T00:11:59;3.43;;;1.43;;
13061;SDS011;6597;52.218;9.882;2023-07-31T00:14:26;11.27;;;2.10;;
13061;SDS011;6597;52.218;9.882;2023-07-31T00:16:53;11.30;;;2.10;;
13061;SDS011;6597;52.218;9.882;2023-07-31T00:19:19;16.20;;;2.60;;
13061;SDS011;6597;52.218;9.882;2023-07-31T00:21:46;11.63;;;2.40;;
13061;SDS011;6597;52.218;9.882;2023-07-31T00:24:12;13.93;;;2.50;;
13061;SDS011;6597;52.218;9.882;2023-07-31T00:26:39;7.03;;;1.97;;
13061;SDS011;6597;52.218;9.882;2023-07-31T00:29:07;11.37;;;2.20;;
13061;SDS011;6597;52.218;9.882;2023-07-31T00:31:33;12.80;;;2.10;;
13061;SDS011;6597;52.218;9.882;2023-07-31T00:34:00;7.13;;;1.40;;
13061;SDS011;6597;52.218;9.882;2023-07-31T00:36:26;18.87;;;4.07;;
13061;SDS011;6597;52.218;9.882;2023-07-31T00:38:53;7.10;;;1.30;;
13061;SDS011;6597;52.218;9.882;2023-07-31T00:41:19;13.23;;;2.03;;
13061;SDS011;6597;52.218;9.882;2023-07-31T00:43:47;12.17;;;2.37;;
13061;SDS011;6597;52.218;9.882;2023-07-31T00:46:15;9.73;;;1.57;;
13061;SDS011;6597;52.218;9.882;2023-07-31T00:48:42;29.03;;;5.20;;
13061;SDS011;6597;52.218;9.882;2023-07-31T00:51:09;11.63;;;1.80;;
13061;SDS011;6597;52.218;9.882;2023-07-31T00:53:36;13.03;;;1.77;;
13061;SDS011;6597;52.218;9.882;2023-07-31T00:56:03;11.43;;;1.93;;
13061;SDS011;6597;52.218;9.882;2023-07-31T00:58:30;10.00;;;1.60;;
13061;SDS011;6597;52.218;9.882;2023-07-31T01:00:57;8.35;;;1.40;;
13061;SDS011;6597;52.218;9.882;2023-07-31T01:03:25;11.97;;;2.07;;
13061;SDS011;6597;52.218;9.882;2023-07-31T01:05:54;9.73;;;1.80;;
13061;SDS011;6597;52.218;9.882;2023-07-31T01:08:41;19.30;;;2.33;;
13061;SDS011;6597;52.218;9.882;2023-07-31T01:11:14;11.13;;;1.63;;
13061;SDS011;6597;52.218;9.882;2023-07-31T01:13:42;12.10;;;1.90;;
13061;SDS011;6597;52.218;9.882;2023-07-31T01:16:10;11.30;;;1.90;;
13061;SDS011;6597;52.218;9.882;2023-07-31T01:18:38;13.80;;;2.10;;
13061;SDS011;6597;52.218;9.882;2023-07-31T01:21:07;17.17;;;2.30;;
13061;SDS011;6597;52.218;9.882;2023-07-31T01:24:02;11.63;;;2.10;;
13061;SDS011;6597;52.218;9.882;2023-07-31T01:26:47;22.57;;;3.63;;
13061;SDS011;6597;52.218;9.882;2023-07-31T01:29:20;14.53;;;2.10;;
13061;SDS011;6597;52.218;9.882;2023-07-31T01:31:55;7.60;;;1.27;;
13061;SDS011;6597;52.218;9.882;2023-07-31T01:34:25;2.43;;;0.90;;
13061;SDS011;6597;52.218;9.882;2023-07-31T01:36:52;13.53;;;1.97;;
13061;SDS011;6597;52.218;9.882;2023-07-31T01:39:19;8.50;;;1.40;;
13061;SDS011;6597;52.218;9.882;2023-07-31T01:41:48;3.87;;;1.00;;
13061;SDS011;6597;52.218;9.882;2023-07-31T01:44:14;48.93;;;5.47;;
13061;SDS011;6597;52.218;9.882;2023-07-31T01:46:41;15.03;;;1.80;;
13061;SDS011;6597;52.218;9.882;2023-07-31T01:49:07;18.23;;;2.00;;
13061;SDS011;6597;52.218;9.882;2023-07-31T01:51:34;21.43;;;2.13;;
13061;SDS011;6597;52.218;9.882;2023-07-31T01:54:01;15.10;;;1.40;;
13061;SDS011;6597;52.218;9.882;2023-07-31T01:56:27;17.53;;;1.80;;
13061;SDS011;6597;52.218;9.882;2023-07-31T01:58:55;15.23;;;1.70;;
13061;SDS011;6597;52.218;9.882;2023-07-31T02:01:22;14.43;;;2.03;;
13061;SDS011;6597;52.218;9.882;2023-07-31T02:03:49;9.87;;;1.40;;
13061;SDS011;6597;52.218;9.882;2023-07-31T02:06:16;31.57;;;4.20;;
13061;SDS011;6597;52.218;9.882;2023-07-31T02:08:43;3.83;;;0.80;;
13061;SDS011;6597;52.218;9.882;2023-07-31T02:11:12;13.23;;;1.70;;
13061;SDS011;6597;52.218;9.882;2023-07-31T02:13:38;6.93;;;1.03;;
13061;SDS011;6597;52.218;9.882;2023-07-31T02:16:06;8.97;;;1.20;;
13061;SDS011;6597;52.218;9.882;2023-07-31T02:18:32;10.00;;;1.40;;
13061;SDS011;6597;52.218;9.882;2023-07-31T02:21:01;6.70;;;1.23;;
13061;SDS011;6597;52.218;9.882;2023-07-31T02:23:27;12.10;;;1.87;;
13061;SDS011;6597;52.218;9.882;2023-07-31T02:25:54;15.13;;;1.90;;
13061;SDS011;6597;52.218;9.882;2023-07-31T02:28:19;15.03;;;1.67;;
13061;SDS011;6597;52.218;9.882;2023-07-31T02:30:46;8.70;;;1.17;;
13061;SDS011;6597;52.218;9.882;2023-07-31T02:33:14;15.00;;;2.40;;
13061;SDS011;6597;52.218;9.882;2023-07-31T02:35:41;12.07;;;1.37;;
13061;SDS011;6597;52.218;9.882;2023-07-31T02:38:08;3.37;;;0.80;;
13061;SDS011;6597;52.218;9.882;2023-07-31T02:40:34;11.13;;;1.47;;
13061;SDS011;6597;52.218;9.882;2023-07-31T02:43:01;15.27;;;2.03;;
13061;SDS011;6597;52.218;9.882;2023-07-31T02:45:27;8.77;;;1.30;;
13061;SDS011;6597;52.218;9.882;2023-07-31T02:47:54;12.43;;;1.70;;
13061;SDS011;6597;52.218;9.882;2023-07-31T02:50:22;5.37;;;0.97;;
13061;SDS011;6597;52.218;9.882;2023-07-31T02:52:48;14.13;;;2.00;;
13061;SDS011;6597;52.218;9.882;2023-07-31T02:55:15;17.47;;;2.27;;
13061;SDS011;6597;52.218;9.882;2023-07-31T02:57:41;11.77;;;1.70;;
13061;SDS011;6597;52.218;9.882;2023-07-31T03:00:08;7.70;;;1.47;;
13061;SDS011;6597;52.218;9.882;2023-07-31T03:02:35;8.57;;;1.20;;
13061;SDS011;6597;52.218;9.882;2023-07-31T03:05:01;11.27;;;1.60;;
13061;SDS011;6597;52.218;9.882;2023-07-31T03:07:29;8.20;;;1.37;;
13061;SDS011;6597;52.218;9.882;2023-07-31T03:09:56;13.63;;;1.83;;
13061;SDS011;6597;52.218;9.882;2023-07-31T03:12:23;16.10;;;1.33;;
13061;SDS011;6597;52.218;9.882;2023-07-31T03:14:50;17.27;;;1.80;;
13061;SDS011;6597;52.218;9.882;2023-07-31T03:17:16;17.60;;;2.03;;
13061;SDS011;6597;52.218;9.882;2023-07-31T03:19:43;9.33;;;1.37;;
13061;SDS011;6597;52.218;9.882;2023-07-31T03:22:09;36.80;;;4.37;;
13061;SDS011;6597;52.218;9.882;2023-07-31T03:24:37;7.83;;;1.30;;
13061;SDS011;6597;52.218;9.882;2023-07-31T03:27:04;29.77;;;4.60;;
13061;SDS011;6597;52.218;9.882;2023-07-31T03:29:31;2.40;;;0.90;;
13061;SDS011;6597;52.218;9.882;2023-07-31T03:31:58;9.00;;;1.63;;
13061;SDS011;6597;52.218;9.882;2023-07-31T03:34:26;10.13;;;1.40;;
13061;SDS011;6597;52.218;9.882;2023-07-31T03:36:53;6.70;;;1.17;;
13061;SDS011;6597;52.218;9.882;2023-07-31T03:39:19;12.43;;;1.87;;
13061;SDS011;6597;52.218;9.882;2023-07-31T03:41:48;12.47;;;1.67;;
13061;SDS011;6597;52.218;9.882;2023-07-31T03:44:16;9.37;;;1.60;;
13061;SDS011;6597;52.218;9.882;2023-07-31T03:46:43;13.63;;;1.77;;
13061;SDS011;6597;52.218;9.882;2023-07-31T03:49:09;13.27;;;1.47;;
13061;SDS011;6597;52.218;9.882;2023-07-31T03:51:36;10.20;;;1.60;;
13061;SDS011;6597;52.218;9.882;2023-07-31T03:54:02;13.83;;;1.77;;
13061;SDS011;6597;52.218;9.882;2023-07-31T03:56:29;9.63;;;1.20;;
13061;SDS011;6597;52.218;9.882;2023-07-31T03:58:57;6.57;;;1.13;;
13061;SDS011;6597;52.218;9.882;2023-07-31T04:01:23;11.53;;;1.47;;
13061;SDS011;6597;52.218;9.882;2023-07-31T04:03:50;13.47;;;1.50;;
13061;SDS011;6597;52.218;9.882;2023-07-31T04:06:17;11.10;;;1.60;;
13061;SDS011;6597;52.218;9.882;2023-07-31T04:08:44;9.50;;;1.50;;
13061;SDS011;6597;52.218;9.882;2023-07-31T04:11:10;12.57;;;1.77;;
13061;SDS011;6597;52.218;9.882;2023-07-31T04:13:37;9.50;;;1.43;;
13061;SDS011;6597;52.218;9.882;2023-07-31T04:16:05;20.87;;;2.33;;
13061;SDS011;6597;52.218;9.882;2023-07-31T04:18:31;11.27;;;1.77;;
13061;SDS011;6597;52.218;9.882;2023-07-31T04:20:58;15.60;;;2.00;;
13061;SDS011;6597;52.218;9.882;2023-07-31T04:23:26;38.17;;;4.53;;
13061;SDS011;6597;52.218;9.882;2023-07-31T04:25:53;14.23;;;1.70;;
13061;SDS011;6597;52.218;9.882;2023-07-31T04:28:19;46.13;;;5.57;;
13061;SDS011;6597;52.218;9.882;2023-07-31T04:30:46;15.37;;;1.80;;
13061;SDS011;6597;52.218;9.882;2023-07-31T04:33:14;20.03;;;2.90;;
13061;SDS011;6597;52.218;9.882;2023-07-31T04:35:40;8.23;;;1.30;;
13061;SDS011;6597;52.218;9.882;2023-07-31T04:38:07;5.87;;;1.30;;
13061;SDS011;6597;52.218;9.882;2023-07-31T04:40:34;7.30;;;1.30;;
13061;SDS011;6597;52.218;9.882;2023-07-31T04:43:00;8.63;;;1.30;;
13061;SDS011;6597;52.218;9.882;2023-07-31T04:45:27;10.60;;;1.37;;
13061;SDS011;6597;52.218;9.882;2023-07-31T04:47:53;20.13;;;1.97;;
13061;SDS011;6597;52.218;9.882;2023-07-31T04:50:21;11.97;;;1.30;;
13061;SDS011;6597;52.218;9.882;2023-07-31T04:52:47;10.03;;;1.10;;
13061;SDS011;6597;52.218;9.882;2023-07-31T04:55:14;16.07;;;1.70;;
13061;SDS011;6597;52.218;9.882;2023-07-31T04:57:41;12.53;;;1.30;;
13061;SDS011;6597;52.218;9.882;2023-07-31T05:00:07;16.13;;;1.87;;
13061;SDS011;6597;52.218;9.882;2023-07-31T05:02:34;9.97;;;1.10;;
13061;SDS011;6597;52.218;9.882;2023-07-31T05:05:01;20.63;;;2.20;;
13061;SDS011;6597;52.218;9.882;2023-07-31T05:07:29;12.40;;;1.40;;
13061;SDS011;6597;52.218;9.882;2023-07-31T05:09:55;11.90;;;1.73;;
13061;SDS011;6597;52.218;9.882;2023-07-31T05:12:22;10.97;;;1.70;;
13061;SDS011;6597;52.218;9.882;2023-07-31T05:14:48;19.17;;;2.30;;
13061;SDS011;6597;52.218;9.882;2023-07-31T05:17:15;49.83;;;5.77;;
13061;SDS011;6597;52.218;9.882;2023-07-31T05:19:41;12.43;;;2.20;;
13061;SDS011;6597;52.218;9.882;2023-07-31T05:22:08;14.77;;;2.77;;
13061;SDS011;6597;52.218;9.882;2023-07-31T05:24:36;15.30;;;2.67;;
13061;SDS011;6597;52.218;9.882;2023-07-31T05:27:03;57.00;;;6.83;;
13061;SDS011;6597;52.218;9.882;2023-07-31T05:29:30;4.27;;;2.23;;
13061;SDS011;6597;52.218;9.882;2023-07-31T05:31:56;15.63;;;3.27;;
13061;SDS011;6597;52.218;9.882;2023-07-31T05:34:23;15.50;;;3.93;;
13061;SDS011;6597;52.218;9.882;2023-07-31T05:36:49;15.97;;;4.13;;
13061;SDS011;6597;52.218;9.882;2023-07-31T05:39:16;15.37;;;4.23;;
13061;SDS011;6597;52.218;9.882;2023-07-31T05:41:46;19.53;;;4.90;;
13061;SDS011;6597;52.218;9.882;2023-07-31T05:44:12;16.13;;;5.03;;
13061;SDS011;6597;52.218;9.882;2023-07-31T05:46:39;17.47;;;5.17;;
13061;SDS011;6597;52.218;9.882;2023-07-31T05:49:05;22.20;;;4.87;;
13061;SDS011;6597;52.218;9.882;2023-07-31T05:51:32;27.70;;;5.93;;
13061;SDS011;6597;52.218;9.882;2023-07-31T05:53:58;23.37;;;5.10;;
13061;SDS011;6597;52.218;9.882;2023-07-31T05:56:25;21.43;;;5.33;;
13061;SDS011;6597;52.218;9.882;2023-07-31T05:58:53;18.00;;;4.57;;
13061;SDS011;6597;52.218;9.882;2023-07-31T06:01:20;16.57;;;4.63;;
13061;SDS011;6597;52.218;9.882;2023-07-31T06:03:46;12.00;;;4.83;;
13061;SDS011;6597;52.218;9.882;2023-07-31T06:06:13;18.47;;;5.13;;
13061;SDS011;6597;52.218;9.882;2023-07-31T06:08:40;16.63;;;4.90;;
13061;SDS011;6597;52.218;9.882;2023-07-31T06:11:06;50.23;;;8.13;;
13061;SDS011;6597;52.218;9.882;2023-07-31T06:13:34;12.57;;;3.60;;
13061;SDS011;6597;52.218;9.882;2023-07-31T06:16:02;52.53;;;8.10;;
13061;SDS011;6597;52.218;9.882;2023-07-31T06:18:30;13.50;;;4.50;;
13061;SDS011;6597;52.218;9.882;2023-07-31T06:20:57;12.23;;;4.03;;
13061;SDS011;6597;52.218;9.882;2023-07-31T06:23:23;25.20;;;6.57;;
13061;SDS011;6597;52.218;9.882;2023-07-31T06:25:50;14.13;;;4.50;;
13061;SDS011;6597;52.218;9.882;2023-07-31T06:28:16;13.13;;;4.37;;
13061;SDS011;6597;52.218;9.882;2023-07-31T06:30:43;31.27;;;7.43;;
13061;SDS011;6597;52.218;9.882;2023-07-31T06:33:11;19.27;;;5.83;;
13061;SDS011;6597;52.218;9.882;2023-07-31T06:35:37;12.43;;;4.23;;
13061;SDS011;6597;52.218;9.882;2023-07-31T06:38:04;15.17;;;5.50;;
13061;SDS011;6597;52.218;9.882;2023-07-31T06:40:31;13.67;;;5.30;;
13061;SDS011;6597;52.218;9.882;2023-07-31T06:42:57;15.90;;;5.33;;
13061;SDS011;6597;52.218;9.882;2023-07-31T06:45:24;19.07;;;6.30;;
13061;SDS011;6597;52.218;9.882;2023-07-31T06:47:50;16.73;;;5.87;;
13061;SDS011;6597;52.218;9.882;2023-07-31T06:50:18;20.50;;;6.63;;
13061;SDS011;6597;52.218;9.882;2023-07-31T06:52:45;23.97;;;6.77;;
13061;SDS011;6597;52.218;9.882;2023-07-31T06:55:18;23.37;;;7.03;;
13061;SDS011;6597;52.218;9.882;2023-07-31T06:57:46;20.97;;;6.87;;
13061;SDS011;6597;52.218;9.882;2023-07-31T07:00:13;21.00;;;6.90;;
13061;SDS011;6597;52.218;9.882;2023-07-31T07:02:40;13.57;;;6.67;;
13061;SDS011;6597;52.218;9.882;2023-07-31T07:05:07;18.73;;;7.50;;
13061;SDS011;6597;52.218;9.882;2023-07-31T07:07:35;20.57;;;6.93;;
13061;SDS011;6597;52.218;9.882;2023-07-31T07:10:03;22.77;;;7.53;;
13061;SDS011;6597;52.218;9.882;2023-07-31T07:12:30;16.83;;;6.87;;
13061;SDS011;6597;52.218;9.882;2023-07-31T07:14:58;15.20;;;6.77;;
13061;SDS011;6597;52.218;9.882;2023-07-31T07:17:24;17.57;;;7.33;;
13061;SDS011;6597;52.218;9.882;2023-07-31T07:19:51;21.77;;;7.53;;
13061;SDS011;6597;52.218;9.882;2023-07-31T07:22:17;18.97;;;7.07;;
13061;SDS011;6597;52.218;9.882;2023-07-31T07:24:45;33.53;;;9.13;;
13061;SDS011;6597;52.218;9.882;2023-07-31T07:27:12;18.67;;;6.93;;
13061;SDS011;6597;52.218;9.882;2023-07-31T07:29:38;13.47;;;6.67;;
13061;SDS011;6597;52.218;9.882;2023-07-31T07:32:05;21.17;;;7.00;;
13061;SDS011;6597;52.218;9.882;2023-07-31T07:34:33;22.73;;;6.90;;
13061;SDS011;6597;52.218;9.882;2023-07-31T07:36:59;19.43;;;6.70;;
13061;SDS011;6597;52.218;9.882;2023-07-31T07:39:26;17.03;;;6.57;;
13061;SDS011;6597;52.218;9.882;2023-07-31T07:41:54;21.23;;;7.10;;
13061;SDS011;6597;52.218;9.882;2023-07-31T07:44:20;18.77;;;6.57;;
13061;SDS011;6597;52.218;9.882;2023-07-31T07:46:47;35.27;;;7.40;;
13061;SDS011;6597;52.218;9.882;2023-07-31T07:49:13;16.03;;;6.70;;
13061;SDS011;6597;52.218;9.882;2023-07-31T07:51:40;21.00;;;7.30;;
13061;SDS011;6597;52.218;9.882;2023-07-31T07:54:06;21.23;;;6.37;;
13061;SDS011;6597;52.218;9.882;2023-07-31T07:56:33;27.67;;;9.60;;
13061;SDS011;6597;52.218;9.882;2023-07-31T07:59:02;13.50;;;5.47;;
13061;SDS011;6597;52.218;9.882;2023-07-31T08:01:29;20.43;;;6.17;;
13061;SDS011;6597;52.218;9.882;2023-07-31T08:03:55;26.17;;;6.53;;
13061;SDS011;6597;52.218;9.882;2023-07-31T08:06:22;22.30;;;6.10;;
13061;SDS011;6597;52.218;9.882;2023-07-31T08:08:49;15.10;;;5.60;;
13061;SDS011;6597;52.218;9.882;2023-07-31T08:11:15;18.20;;;5.53;;
13061;SDS011;6597;52.218;9.882;2023-07-31T08:13:42;11.33;;;5.33;;
13061;SDS011;6597;52.218;9.882;2023-07-31T08:16:10;17.90;;;5.70;;
13061;SDS011;6597;52.218;9.882;2023-07-31T08:18:36;10.70;;;4.80;;
13061;SDS011;6597;52.218;9.882;2023-07-31T08:21:03;15.27;;;5.63;;
13061;SDS011;6597;52.218;9.882;2023-07-31T08:23:29;13.10;;;5.10;;
13061;SDS011;6597;52.218;9.882;2023-07-31T08:25:56;16.27;;;5.93;;
13061;SDS011;6597;52.218;9.882;2023-07-31T08:28:23;13.87;;;5.43;;
13061;SDS011;6597;52.218;9.882;2023-07-31T08:30:49;9.60;;;4.67;;
13061;SDS011;6597;52.218;9.882;2023-07-31T08:33:17;14.83;;;6.53;;
13061;SDS011;6597;52.218;9.882;2023-07-31T08:35:44;17.60;;;5.50;;
13061;SDS011;6597;52.218;9.882;2023-07-31T08:38:11;11.47;;;4.80;;
13061;SDS011;6597;52.218;9.882;2023-07-31T08:40:38;12.97;;;5.60;;
13061;SDS011;6597;52.218;9.882;2023-07-31T08:43:05;16.87;;;5.37;;
13061;SDS011;6597;52.218;9.882;2023-07-31T08:45:33;17.57;;;6.27;;
13061;SDS011;6597;52.218;9.882;2023-07-31T08:48:00;16.20;;;5.33;;
13061;SDS011;6597;52.218;9.882;2023-07-31T08:50:29;17.25;;;5.78;;
13061;SDS011;6597;52.218;9.882;2023-07-31T08:52:56;13.60;;;4.50;;
13061;SDS011;6597;52.218;9.882;2023-07-31T08:55:22;12.63;;;4.28;;
13061;SDS011;6597;52.218;9.882;2023-07-31T08:57:50;9.52;;;4.03;;
13061;SDS011;6597;52.218;9.882;2023-07-31T09:00:18;11.82;;;4.53;;
13061;SDS011;6597;52.218;9.882;2023-07-31T09:02:52;12.98;;;4.60;;
13061;SDS011;6597;52.218;9.882;2023-07-31T09:05:23;15.30;;;4.25;;
13061;SDS011;6597;52.218;9.882;2023-07-31T09:07:53;10.57;;;3.60;;
13061;SDS011;6597;52.218;9.882;2023-07-31T09:10:22;12.33;;;4.10;;
13061;SDS011;6597;52.218;9.882;2023-07-31T09:12:50;10.88;;;3.88;;
13061;SDS011;6597;52.218;9.882;2023-07-31T09:15:18;9.60;;;4.03;;
13061;SDS011;6597;52.218;9.882;2023-07-31T09:17:45;14.23;;;5.67;;
13061;SDS011;6597;52.218;9.882;2023-07-31T09:20:15;9.00;;;3.40;;
13061;SDS011;6597;52.218;9.882;2023-07-31T09:22:43;8.70;;;2.93;;
13061;SDS011;6597;52.218;9.882;2023-07-31T09:25:18;11.00;;;2.97;;
13061;SDS011;6597;52.218;9.882;2023-07-31T09:27:45;8.20;;;3.05;;
13061;SDS011;6597;52.218;9.882;2023-07-31T09:30:12;9.40;;;3.25;;
13061;SDS011;6597;52.218;9.882;2023-07-31T09:32:39;6.03;;;2.35;;
13061;SDS011;6597;52.218;9.882;2023-07-31T09:35:12;9.20;;;2.50;;
13061;SDS011;6597;52.218;9.882;2023-07-31T09:37:40;8.43;;;2.70;;
13061;SDS011;6597;52.218;9.882;2023-07-31T09:40:07;10.85;;;2.95;;
13061;SDS011;6597;52.218;9.882;2023-07-31T09:42:35;25.25;;;6.35;;
13061;SDS011;6597;52.218;9.882;2023-07-31T09:45:08;10.05;;;2.97;;
13061;SDS011;6597;52.218;9.882;2023-07-31T09:47:36;6.65;;;2.38;;
13061;SDS011;6597;52.218;9.882;2023-07-31T09:50:05;10.45;;;3.28;;
13061;SDS011;6597;52.218;9.882;2023-07-31T09:52:34;6.07;;;2.13;;
13061;SDS011;6597;52.218;9.882;2023-07-31T09:55:04;4.85;;;2.38;;
13061;SDS011;6597;52.218;9.882;2023-07-31T09:57:31;6.82;;;2.45;;
13061;SDS011;6597;52.218;9.882;2023-07-31T10:00:00;10.82;;;2.72;;
13061;SDS011;6597;52.218;9.882;2023-07-31T10:02:37;5.57;;;2.72;;
13061;SDS011;6597;52.218;9.882;2023-07-31T10:05:04;7.15;;;3.33;;
13061;SDS011;6597;52.218;9.882;2023-07-31T10:07:33;6.85;;;2.88;;
13061;SDS011;6597;52.218;9.882;2023-07-31T10:10:07;15.50;;;4.82;;
13061;SDS011;6597;52.218;9.882;2023-07-31T10:12:34;7.00;;;3.28;;
13061;SDS011;6597;52.218;9.882;2023-07-31T10:15:04;6.65;;;3.13;;
13061;SDS011;6597;52.218;9.882;2023-07-31T10:17:32;9.32;;;3.97;;
13061;SDS011;6597;52.218;9.882;2023-07-31T10:20:05;6.43;;;2.90;;
13061;SDS011;6597;52.218;9.882;2023-07-31T10:22:34;6.00;;;2.95;;
13061;SDS011;6597;52.218;9.882;2023-07-31T10:25:01;5.45;;;2.97;;
13061;SDS011;6597;52.218;9.882;2023-07-31T10:27:28;7.75;;;3.00;;
13061;SDS011;6597;52.218;9.882;2023-07-31T10:29:55;6.35;;;3.00;;
13061;SDS011;6597;52.218;9.882;2023-07-31T10:32:25;5.45;;;2.60;;
13061;SDS011;6597;52.218;9.882;2023-07-31T10:34:52;8.73;;;3.55;;
13061;SDS011;6597;52.218;9.882;2023-07-31T10:37:21;5.65;;;2.80;;
13061;SDS011;6597;52.218;9.882;2023-07-31T10:39:55;4.30;;;2.70;;
13061;SDS011;6597;52.218;9.882;2023-07-31T10:42:27;6.38;;;3.38;;
13061;SDS011;6597;52.218;9.882;2023-07-31T10:44:56;8.40;;;3.40;;
13061;SDS011;6597;52.218;9.882;2023-07-31T10:47:25;5.72;;;2.97;;
13061;SDS011;6597;52.218;9.882;2023-07-31T10:49:52;6.75;;;2.97;;
13061;SDS011;6597;52.218;9.882;2023-07-31T10:52:19;13.63;;;3.88;;
13061;SDS011;6597;52.218;9.882;2023-07-31T10:54:48;6.50;;;3.10;;
13061;SDS011;6597;52.218;9.882;2023-07-31T10:57:19;5.32;;;2.78;;
13061;SDS011;6597;52.218;9.882;2023-07-31T10:59:47;5.75;;;2.50;;
13061;SDS011;6597;52.218;9.882;2023-07-31T11:02:23;7.65;;;2.78;;
13061;SDS011;6597;52.218;9.882;2023-07-31T11:07:46;4.40;;;2.42;;
13061;SDS011;6597;52.218;9.882;2023-07-31T11:10:16;4.88;;;2.95;;
13061;SDS011;6597;52.218;9.882;2023-07-31T11:12:44;5.68;;;2.60;;
13061;SDS011;6597;52.218;9.882;2023-07-31T11:15:11;4.75;;;2.08;;
13061;SDS011;6597;52.218;9.882;2023-07-31T11:17:38;5.78;;;3.03;;
13061;SDS011;6597;52.218;9.882;2023-07-31T11:20:05;8.07;;;2.63;;
13061;SDS011;6597;52.218;9.882;2023-07-31T11:22:36;4.35;;;2.33;;
13061;SDS011;6597;52.218;9.882;2023-07-31T11:25:03;4.47;;;2.38;;
13061;SDS011;6597;52.218;9.882;2023-07-31T11:27:30;7.95;;;2.58;;
13061;SDS011;6597;52.218;9.882;2023-07-31T11:30:00;5.63;;;2.28;;
13061;SDS011;6597;52.218;9.882;2023-07-31T11:32:27;4.47;;;2.13;;
13061;SDS011;6597;52.218;9.882;2023-07-31T11:34:54;5.53;;;2.08;;
13061;SDS011;6597;52.218;9.882;2023-07-31T11:37:23;4.43;;;2.22;;
13061;SDS011;6597;52.218;9.882;2023-07-31T11:39:59;4.55;;;2.50;;
13061;SDS011;6597;52.218;9.882;2023-07-31T11:42:26;4.63;;;2.92;;
13061;SDS011;6597;52.218;9.882;2023-07-31T11:44:52;8.30;;;2.63;;
13061;SDS011;6597;52.218;9.882;2023-07-31T11:47:19;5.40;;;2.20;;
13061;SDS011;6597;52.218;9.882;2023-07-31T11:49:46;5.63;;;1.80;;
13061;SDS011;6597;52.218;9.882;2023-07-31T11:52:15;9.68;;;4.85;;
13061;SDS011;6597;52.218;9.882;2023-07-31T11:54:43;3.67;;;2.05;;
13061;SDS011;6597;52.218;9.882;2023-07-31T11:57:10;4.35;;;2.45;;
13061;SDS011;6597;52.218;9.882;2023-07-31T11:59:37;3.33;;;1.83;;
13061;SDS011;6597;52.218;9.882;2023-07-31T12:02:08;7.53;;;1.98;;
13061;SDS011;6597;52.218;9.882;2023-07-31T12:04:35;3.10;;;1.80;;
13061;SDS011;6597;52.218;9.882;2023-07-31T12:07:02;1.80;;;1.23;;
13061;SDS011;6597;52.218;9.882;2023-07-31T12:09:28;3.50;;;1.92;;
13061;SDS011;6597;52.218;9.882;2023-07-31T12:11:56;5.43;;;2.22;;
13061;SDS011;6597;52.218;9.882;2023-07-31T12:14:24;3.92;;;2.15;;
13061;SDS011;6597;52.218;9.882;2023-07-31T12:16:55;3.67;;;2.08;;
13061;SDS011;6597;52.218;9.882;2023-07-31T12:19:22;3.70;;;2.05;;
13061;SDS011;6597;52.218;9.882;2023-07-31T12:21:53;3.55;;;2.13;;
13061;SDS011;6597;52.218;9.882;2023-07-31T12:24:19;5.75;;;2.15;;
13061;SDS011;6597;52.218;9.882;2023-07-31T12:26:46;3.33;;;1.85;;
13061;SDS011;6597;52.218;9.882;2023-07-31T12:29:15;3.00;;;1.60;;
13061;SDS011;6597;52.218;9.882;2023-07-31T12:31:42;4.18;;;2.13;;
13061;SDS011;6597;52.218;9.882;2023-07-31T12:34:15;4.82;;;2.30;;
13061;SDS011;6597;52.218;9.882;2023-07-31T12:36:42;3.30;;;1.80;;
13061;SDS011;6597;52.218;9.882;2023-07-31T12:39:09;3.30;;;1.58;;
13061;SDS011;6597;52.218;9.882;2023-07-31T12:41:36;3.38;;;1.80;;
13061;SDS011;6597;52.218;9.882;2023-07-31T12:44:02;5.88;;;1.88;;
13061;SDS011;6597;52.218;9.882;2023-07-31T12:46:30;2.03;;;1.40;;
13061;SDS011;6597;52.218;9.882;2023-07-31T12:48:57;2.63;;;1.60;;
13061;SDS011;6597;52.218;9.882;2023-07-31T12:51:23;3.22;;;1.85;;
13061;SDS011;6597;52.218;9.882;2023-07-31T12:53:50;2.53;;;1.27;;
13061;SDS011;6597;52.218;9.882;2023-07-31T12:56:16;2.40;;;1.40;;
13061;SDS011;6597;52.218;9.882;2023-07-31T12:58:43;3.90;;;1.65;;
13061;SDS011;6597;52.218;9.882;2023-07-31T13:01:10;1.85;;;1.27;;
13061;SDS011;6597;52.218;9.882;2023-07-31T13:03:38;3.42;;;1.30;;
13061;SDS011;6597;52.218;9.882;2023-07-31T13:06:04;2.38;;;1.20;;
13061;SDS011;6597;52.218;9.882;2023-07-31T13:08:31;2.03;;;1.23;;
13061;SDS011;6597;52.218;9.882;2023-07-31T13:10:58;2.53;;;1.30;;
13061;SDS011;6597;52.218;9.882;2023-07-31T13:13:24;3.88;;;1.77;;
13061;SDS011;6597;52.218;9.882;2023-07-31T13:15:51;6.88;;;1.50;;
13061;SDS011;6597;52.218;9.882;2023-07-31T13:18:17;13.35;;;1.73;;
13061;SDS011;6597;52.218;9.882;2023-07-31T13:20:45;4.43;;;0.90;;
13061;SDS011;6597;52.218;9.882;2023-07-31T13:23:12;22.63;;;2.80;;
13061;SDS011;6597;52.218;9.882;2023-07-31T13:25:38;8.02;;;1.17;;
13061;SDS011;6597;52.218;9.882;2023-07-31T13:28:05;13.30;;;1.90;;
13061;SDS011;6597;52.218;9.882;2023-07-31T13:30:31;4.03;;;0.93;;
13061;SDS011;6597;52.218;9.882;2023-07-31T13:32:58;8.65;;;1.20;;
13061;SDS011;6597;52.218;9.882;2023-07-31T13:35:24;12.35;;;1.52;;
13061;SDS011;6597;52.218;9.882;2023-07-31T13:37:52;10.90;;;1.52;;
13061;SDS011;6597;52.218;9.882;2023-07-31T13:40:19;2.58;;;0.82;;
13061;SDS011;6597;52.218;9.882;2023-07-31T13:42:45;7.75;;;1.20;;
13061;SDS011;6597;52.218;9.882;2023-07-31T13:45:13;3.70;;;0.68;;
13061;SDS011;6597;52.218;9.882;2023-07-31T13:47:40;6.70;;;1.17;;
13061;SDS011;6597;52.218;9.882;2023-07-31T13:50:06;8.18;;;1.55;;
13061;SDS011;6597;52.218;9.882;2023-07-31T13:52:33;7.82;;;1.33;;
13061;SDS011;6597;52.218;9.882;2023-07-31T13:55:01;12.07;;;1.70;;
13061;SDS011;6597;52.218;9.882;2023-07-31T13:57:28;7.80;;;1.10;;
13061;SDS011;6597;52.218;9.882;2023-07-31T13:59:54;9.05;;;1.23;;
13061;SDS011;6597;52.218;9.882;2023-07-31T14:02:21;10.32;;;1.30;;
13061;SDS011;6597;52.218;9.882;2023-07-31T14:04:47;6.68;;;1.05;;
13061;SDS011;6597;52.218;9.882;2023-07-31T14:07:14;4.68;;;0.75;;
13061;SDS011;6597;52.218;9.882;2023-07-31T14:09:42;7.78;;;1.38;;
13061;SDS011;6597;52.218;9.882;2023-07-31T14:12:10;12.43;;;1.70;;
13061;SDS011;6597;52.218;9.882;2023-07-31T14:14:37;13.65;;;1.25;;
13061;SDS011;6597;52.218;9.882;2023-07-31T14:17:03;6.68;;;1.00;;
13061;SDS011;6597;52.218;9.882;2023-07-31T14:19:30;12.00;;;1.65;;
13061;SDS011;6597;52.218;9.882;2023-07-31T14:21:58;8.77;;;1.50;;
13061;SDS011;6597;52.218;9.882;2023-07-31T14:24:24;6.95;;;1.40;;
13061;SDS011;6597;52.218;9.882;2023-07-31T14:26:51;1.65;;;0.70;;
13061;SDS011;6597;52.218;9.882;2023-07-31T14:29:19;9.52;;;1.65;;
13061;SDS011;6597;52.218;9.882;2023-07-31T14:31:45;7.47;;;1.30;;
13061;SDS011;6597;52.218;9.882;2023-07-31T14:34:12;7.90;;;1.08;;
13061;SDS011;6597;52.218;9.882;2023-07-31T14:36:41;9.32;;;1.67;;
13061;SDS011;6597;52.218;9.882;2023-07-31T14:39:09;11.00;;;1.80;;
13061;SDS011;6597;52.218;9.882;2023-07-31T14:41:36;2.95;;;1.27;;
13061;SDS011;6597;52.218;9.882;2023-07-31T14:44:02;6.45;;;1.40;;
13061;SDS011;6597;52.218;9.882;2023-07-31T14:46:30;8.63;;;1.75;;
13061;SDS011;6597;52.218;9.882;2023-07-31T14:48:57;7.93;;;1.73;;
13061;SDS011;6597;52.218;9.882;2023-07-31T14:51:24;5.43;;;1.38;;
13061;SDS011;6597;52.218;9.882;2023-07-31T14:53:50;10.18;;;2.08;;
13061;SDS011;6597;52.218;9.882;2023-07-31T14:56:17;7.20;;;1.70;;
13061;SDS011;6597;52.218;9.882;2023-07-31T14:58:43;9.27;;;2.08;;